sensor_id;sensor_type;location;lat;lon;timestamp;P1;durP1;ratioP1;P2;durP2;ratioP2
21354;SDS011;10835;50.148;19.760;2023-07-20T00:02:01;4.05;;;2.47;;
21354;SDS011;10835;50.148;19.760;2023-07-20T00:04:31;6.72;;;2.80;;
21354;SDS011;10835;50.148;19.760;2023-07-20T00:07:00;3.90;;;2.50;;
21354;SDS011;10835;50.148;19.760;2023-07-20T00:09:28;3.97;;;2.13;;
21354;SDS011;10835;50.148;19.760;2023-07-20T00:11:58;3.97;;;2.53;;
21354;SDS011;10835;50.148;19.760;2023-07-20T00:14:27;3.88;;;2.63;;
21354;SDS011;10835;50.148;19.760;2023-07-20T00:16:55;2.60;;;2.13;;
21354;SDS011;10835;50.148;19.760;2023-07-20T00:19:24;3.90;;;2.35;;
21354;SDS011;10835;50.148;19.760;2023-07-20T00:21:54;2.83;;;2.10;;
21354;SDS011;10835;50.148;19.760;2023-07-20T00:24:22;2.95;;;2.40;;
21354;SDS011;10835;50.148;19.760;2023-07-20T00:26:51;4.95;;;3.38;;
21354;SDS011;10835;50.148;19.760;2023-07-20T00:29:21;3.72;;;2.50;;
21354;SDS011;10835;50.148;19.760;2023-07-20T00:31:49;2.50;;;2.25;;
21354;SDS011;10835;50.148;19.760;2023-07-20T00:34:17;3.47;;;2.50;;
21354;SDS011;10835;50.148;19.760;2023-07-20T00:36:46;4.72;;;2.70;;
21354;SDS011;10835;50.148;19.760;2023-07-20T00:39:15;5.25;;;2.70;;
21354;SDS011;10835;50.148;19.760;2023-07-20T00:41:44;3.50;;;2.25;;
21354;SDS011;10835;50.148;19.760;2023-07-20T00:44:12;4.82;;;2.03;;
21354;SDS011;10835;50.148;19.760;2023-07-20T00:46:44;4.07;;;2.17;;
21354;SDS011;10835;50.148;19.760;2023-07-20T00:49:13;5.75;;;2.28;;
21354;SDS011;10835;50.148;19.760;2023-07-20T00:51:42;4.22;;;2.30;;
21354;SDS011;10835;50.148;19.760;2023-07-20T00:54:10;3.75;;;2.55;;
21354;SDS011;10835;50.148;19.760;2023-07-20T00:56:39;3.53;;;2.35;;
21354;SDS011;10835;50.148;19.760;2023-07-20T00:59:07;3.88;;;2.65;;
21354;SDS011;10835;50.148;19.760;2023-07-20T01:01:36;5.82;;;2.40;;
21354;SDS011;10835;50.148;19.760;2023-07-20T01:04:05;5.28;;;2.47;;
21354;SDS011;10835;50.148;19.760;2023-07-20T01:06:36;5.57;;;3.10;;
21354;SDS011;10835;50.148;19.760;2023-07-20T01:09:12;8.43;;;3.17;;
21354;SDS011;10835;50.148;19.760;2023-07-20T01:11:47;7.85;;;2.90;;
21354;SDS011;10835;50.148;19.760;2023-07-20T01:14:22;4.60;;;2.83;;
21354;SDS011;10835;50.148;19.760;2023-07-20T01:16:51;5.78;;;3.20;;
21354;SDS011;10835;50.148;19.760;2023-07-20T01:19:21;6.22;;;2.90;;
21354;SDS011;10835;50.148;19.760;2023-07-20T01:21:53;6.45;;;2.97;;
21354;SDS011;10835;50.148;19.760;2023-07-20T01:24:39;8.38;;;3.38;;
21354;SDS011;10835;50.148;19.760;2023-07-20T01:27:43;5.65;;;3.47;;
21354;SDS011;10835;50.148;19.760;2023-07-20T01:33:30;4.53;;;2.88;;
21354;SDS011;10835;50.148;19.760;2023-07-20T01:36:00;7.28;;;2.78;;
21354;SDS011;10835;50.148;19.760;2023-07-20T01:38:30;3.85;;;3.03;;
21354;SDS011;10835;50.148;19.760;2023-07-20T01:40:59;4.72;;;2.88;;
21354;SDS011;10835;50.148;19.760;2023-07-20T01:43:27;5.90;;;3.67;;
21354;SDS011;10835;50.148;19.760;2023-07-20T01:45:57;6.97;;;3.60;;
21354;SDS011;10835;50.148;19.760;2023-07-20T01:48:26;6.40;;;3.30;;
21354;SDS011;10835;50.148;19.760;2023-07-20T01:50:56;9.70;;;3.22;;
21354;SDS011;10835;50.148;19.760;2023-07-20T01:53:24;12.73;;;3.90;;
21354;SDS011;10835;50.148;19.760;2023-07-20T01:55:53;6.70;;;3.03;;
21354;SDS011;10835;50.148;19.760;2023-07-20T01:58:21;5.93;;;3.25;;
21354;SDS011;10835;50.148;19.760;2023-07-20T02:00:50;4.25;;;2.97;;
21354;SDS011;10835;50.148;19.760;2023-07-20T02:03:19;6.97;;;3.00;;
21354;SDS011;10835;50.148;19.760;2023-07-20T02:05:50;8.65;;;2.95;;
21354;SDS011;10835;50.148;19.760;2023-07-20T02:08:20;5.43;;;2.63;;
21354;SDS011;10835;50.148;19.760;2023-07-20T02:10:48;4.28;;;2.65;;
21354;SDS011;10835;50.148;19.760;2023-07-20T02:13:17;5.15;;;2.78;;
21354;SDS011;10835;50.148;19.760;2023-07-20T02:15:48;4.28;;;2.30;;
21354;SDS011;10835;50.148;19.760;2023-07-20T02:18:17;6.07;;;2.65;;
21354;SDS011;10835;50.148;19.760;2023-07-20T02:20:46;3.78;;;2.40;;
21354;SDS011;10835;50.148;19.760;2023-07-20T02:23:14;4.53;;;2.63;;
21354;SDS011;10835;50.148;19.760;2023-07-20T02:25:44;3.40;;;2.30;;
21354;SDS011;10835;50.148;19.760;2023-07-20T02:28:13;7.95;;;2.78;;
21354;SDS011;10835;50.148;19.760;2023-07-20T02:30:41;4.63;;;2.08;;
21354;SDS011;10835;50.148;19.760;2023-07-20T02:33:10;5.90;;;2.65;;
21354;SDS011;10835;50.148;19.760;2023-07-20T02:35:39;4.75;;;2.67;;
21354;SDS011;10835;50.148;19.760;2023-07-20T02:38:10;4.93;;;2.88;;
21354;SDS011;10835;50.148;19.760;2023-07-20T02:40:39;3.85;;;2.53;;
21354;SDS011;10835;50.148;19.760;2023-07-20T02:43:09;5.05;;;2.78;;
21354;SDS011;10835;50.148;19.760;2023-07-20T02:45:39;4.00;;;2.60;;
21354;SDS011;10835;50.148;19.760;2023-07-20T02:48:09;4.45;;;2.40;;
21354;SDS011;10835;50.148;19.760;2023-07-20T02:50:37;5.05;;;2.55;;
21354;SDS011;10835;50.148;19.760;2023-07-20T02:53:05;8.07;;;2.45;;
21354;SDS011;10835;50.148;19.760;2023-07-20T02:55:34;5.80;;;2.88;;
21354;SDS011;10835;50.148;19.760;2023-07-20T02:58:02;6.78;;;3.08;;
21354;SDS011;10835;50.148;19.760;2023-07-20T03:00:32;5.07;;;2.80;;
21354;SDS011;10835;50.148;19.760;2023-07-20T03:03:00;4.45;;;2.63;;
21354;SDS011;10835;50.148;19.760;2023-07-20T03:05:29;6.88;;;2.60;;
21354;SDS011;10835;50.148;19.760;2023-07-20T03:07:58;4.93;;;2.90;;
21354;SDS011;10835;50.148;19.760;2023-07-20T03:10:29;5.72;;;2.90;;
21354;SDS011;10835;50.148;19.760;2023-07-20T03:12:57;8.80;;;2.72;;
21354;SDS011;10835;50.148;19.760;2023-07-20T03:15:26;4.57;;;2.55;;
21354;SDS011;10835;50.148;19.760;2023-07-20T03:17:59;5.88;;;2.60;;
21354;SDS011;10835;50.148;19.760;2023-07-20T03:20:28;4.55;;;2.88;;
21354;SDS011;10835;50.148;19.760;2023-07-20T03:22:56;5.55;;;2.70;;
21354;SDS011;10835;50.148;19.760;2023-07-20T03:25:24;4.60;;;2.63;;
21354;SDS011;10835;50.148;19.760;2023-07-20T03:27:54;6.50;;;2.92;;
21354;SDS011;10835;50.148;19.760;2023-07-20T03:30:22;3.90;;;2.83;;
21354;SDS011;10835;50.148;19.760;2023-07-20T03:32:52;3.67;;;2.70;;
21354;SDS011;10835;50.148;19.760;2023-07-20T03:35:22;7.28;;;3.20;;
21354;SDS011;10835;50.148;19.760;2023-07-20T03:37:50;5.15;;;2.70;;
21354;SDS011;10835;50.148;19.760;2023-07-20T03:40:18;8.27;;;3.85;;
21354;SDS011;10835;50.148;19.760;2023-07-20T03:42:47;4.68;;;3.17;;
21354;SDS011;10835;50.148;19.760;2023-07-20T03:45:15;5.13;;;2.90;;
21354;SDS011;10835;50.148;19.760;2023-07-20T03:47:43;6.47;;;3.45;;
21354;SDS011;10835;50.148;19.760;2023-07-20T03:50:13;5.32;;;3.03;;
21354;SDS011;10835;50.148;19.760;2023-07-20T03:52:43;6.07;;;3.55;;
21354;SDS011;10835;50.148;19.760;2023-07-20T03:55:11;3.15;;;2.65;;
21354;SDS011;10835;50.148;19.760;2023-07-20T03:57:40;3.85;;;2.58;;
21354;SDS011;10835;50.148;19.760;2023-07-20T04:00:09;6.88;;;3.05;;
21354;SDS011;10835;50.148;19.760;2023-07-20T04:02:41;6.07;;;3.60;;
21354;SDS011;10835;50.148;19.760;2023-07-20T04:05:09;4.75;;;3.25;;
21354;SDS011;10835;50.148;19.760;2023-07-20T04:07:37;6.07;;;4.03;;
21354;SDS011;10835;50.148;19.760;2023-07-20T04:10:08;6.57;;;3.08;;
21354;SDS011;10835;50.148;19.760;2023-07-20T04:12:36;5.88;;;3.40;;
21354;SDS011;10835;50.148;19.760;2023-07-20T04:15:05;4.05;;;2.85;;
21354;SDS011;10835;50.148;19.760;2023-07-20T04:17:34;5.22;;;3.13;;
21354;SDS011;10835;50.148;19.760;2023-07-20T04:20:03;5.93;;;3.00;;
21354;SDS011;10835;50.148;19.760;2023-07-20T04:22:32;5.10;;;2.80;;
21354;SDS011;10835;50.148;19.760;2023-07-20T04:25:02;5.40;;;3.13;;
21354;SDS011;10835;50.148;19.760;2023-07-20T04:27:33;5.32;;;2.75;;
21354;SDS011;10835;50.148;19.760;2023-07-20T04:30:01;5.90;;;2.85;;
21354;SDS011;10835;50.148;19.760;2023-07-20T04:32:31;6.75;;;3.08;;
21354;SDS011;10835;50.148;19.760;2023-07-20T04:35:05;4.20;;;2.80;;
21354;SDS011;10835;50.148;19.760;2023-07-20T04:37:37;4.10;;;2.70;;
21354;SDS011;10835;50.148;19.760;2023-07-20T04:40:15;5.07;;;3.20;;
21354;SDS011;10835;50.148;19.760;2023-07-20T04:42:45;6.55;;;2.90;;
21354;SDS011;10835;50.148;19.760;2023-07-20T04:45:13;5.10;;;2.42;;
21354;SDS011;10835;50.148;19.760;2023-07-20T04:47:42;3.83;;;2.88;;
21354;SDS011;10835;50.148;19.760;2023-07-20T04:50:10;4.97;;;2.95;;
21354;SDS011;10835;50.148;19.760;2023-07-20T04:52:39;5.60;;;3.25;;
21354;SDS011;10835;50.148;19.760;2023-07-20T04:55:13;8.10;;;2.97;;
21354;SDS011;10835;50.148;19.760;2023-07-20T04:57:46;9.40;;;3.45;;
21354;SDS011;10835;50.148;19.760;2023-07-20T05:00:15;4.97;;;3.15;;
21354;SDS011;10835;50.148;19.760;2023-07-20T05:02:44;3.10;;;2.75;;
21354;SDS011;10835;50.148;19.760;2023-07-20T05:05:15;3.55;;;2.65;;
21354;SDS011;10835;50.148;19.760;2023-07-20T05:07:43;4.57;;;2.72;;
21354;SDS011;10835;50.148;19.760;2023-07-20T05:10:15;7.00;;;2.70;;
21354;SDS011;10835;50.148;19.760;2023-07-20T05:12:43;5.75;;;2.88;;
21354;SDS011;10835;50.148;19.760;2023-07-20T05:15:13;4.85;;;2.80;;
21354;SDS011;10835;50.148;19.760;2023-07-20T05:17:42;6.55;;;2.75;;
21354;SDS011;10835;50.148;19.760;2023-07-20T05:20:10;4.63;;;2.78;;
21354;SDS011;10835;50.148;19.760;2023-07-20T05:22:40;4.93;;;2.70;;
21354;SDS011;10835;50.148;19.760;2023-07-20T05:25:08;4.60;;;2.45;;
21354;SDS011;10835;50.148;19.760;2023-07-20T05:27:37;4.32;;;2.33;;
21354;SDS011;10835;50.148;19.760;2023-07-20T05:30:08;4.65;;;2.50;;
21354;SDS011;10835;50.148;19.760;2023-07-20T05:32:37;3.42;;;2.25;;
21354;SDS011;10835;50.148;19.760;2023-07-20T05:35:06;5.40;;;2.55;;
21354;SDS011;10835;50.148;19.760;2023-07-20T05:37:37;4.95;;;2.60;;
21354;SDS011;10835;50.148;19.760;2023-07-20T05:40:06;3.65;;;2.60;;
21354;SDS011;10835;50.148;19.760;2023-07-20T05:42:37;2.70;;;2.35;;
21354;SDS011;10835;50.148;19.760;2023-07-20T05:45:09;3.70;;;2.17;;
21354;SDS011;10835;50.148;19.760;2023-07-20T05:47:38;4.30;;;2.58;;
21354;SDS011;10835;50.148;19.760;2023-07-20T05:50:06;5.22;;;2.25;;
21354;SDS011;10835;50.148;19.760;2023-07-20T05:52:35;4.85;;;2.45;;
21354;SDS011;10835;50.148;19.760;2023-07-20T05:55:05;4.60;;;2.22;;
21354;SDS011;10835;50.148;19.760;2023-07-20T05:57:34;3.92;;;2.20;;
21354;SDS011;10835;50.148;19.760;2023-07-20T06:00:06;5.28;;;2.67;;
21354;SDS011;10835;50.148;19.760;2023-07-20T06:02:40;4.88;;;2.30;;
21354;SDS011;10835;50.148;19.760;2023-07-20T06:05:08;4.82;;;2.75;;
21354;SDS011;10835;50.148;19.760;2023-07-20T06:07:37;4.72;;;2.50;;
21354;SDS011;10835;50.148;19.760;2023-07-20T06:10:06;5.18;;;2.63;;
21354;SDS011;10835;50.148;19.760;2023-07-20T06:12:34;5.95;;;2.80;;
21354;SDS011;10835;50.148;19.760;2023-07-20T06:15:03;3.33;;;2.50;;
21354;SDS011;10835;50.148;19.760;2023-07-20T06:17:33;3.63;;;2.15;;
21354;SDS011;10835;50.148;19.760;2023-07-20T06:20:06;4.35;;;2.67;;
21354;SDS011;10835;50.148;19.760;2023-07-20T06:22:35;4.22;;;2.47;;
21354;SDS011;10835;50.148;19.760;2023-07-20T06:25:04;2.88;;;2.42;;
21354;SDS011;10835;50.148;19.760;2023-07-20T06:27:32;3.60;;;2.28;;
21354;SDS011;10835;50.148;19.760;2023-07-20T06:30:01;4.78;;;2.30;;
21354;SDS011;10835;50.148;19.760;2023-07-20T06:32:29;5.68;;;2.33;;
21354;SDS011;10835;50.148;19.760;2023-07-20T06:34:58;5.22;;;2.70;;
21354;SDS011;10835;50.148;19.760;2023-07-20T06:37:27;7.75;;;3.30;;
21354;SDS011;10835;50.148;19.760;2023-07-20T06:39:56;5.80;;;3.20;;
21354;SDS011;10835;50.148;19.760;2023-07-20T06:42:28;5.22;;;2.70;;
21354;SDS011;10835;50.148;19.760;2023-07-20T06:45:16;7.80;;;3.20;;
21354;SDS011;10835;50.148;19.760;2023-07-20T06:47:44;5.15;;;3.00;;
21354;SDS011;10835;50.148;19.760;2023-07-20T06:50:13;5.95;;;2.40;;
21354;SDS011;10835;50.148;19.760;2023-07-20T06:52:45;5.40;;;2.78;;
21354;SDS011;10835;50.148;19.760;2023-07-20T06:55:14;5.55;;;2.72;;
21354;SDS011;10835;50.148;19.760;2023-07-20T06:57:49;3.40;;;2.58;;
21354;SDS011;10835;50.148;19.760;2023-07-20T07:00:18;4.63;;;2.40;;
21354;SDS011;10835;50.148;19.760;2023-07-20T07:02:47;6.07;;;3.00;;
21354;SDS011;10835;50.148;19.760;2023-07-20T07:05:17;8.52;;;3.40;;
21354;SDS011;10835;50.148;19.760;2023-07-20T07:07:49;3.50;;;2.50;;
21354;SDS011;10835;50.148;19.760;2023-07-20T07:10:18;5.13;;;2.90;;
21354;SDS011;10835;50.148;19.760;2023-07-20T07:12:46;4.25;;;2.63;;
21354;SDS011;10835;50.148;19.760;2023-07-20T07:15:16;9.13;;;3.08;;
21354;SDS011;10835;50.148;19.760;2023-07-20T07:17:44;4.60;;;2.78;;
21354;SDS011;10835;50.148;19.760;2023-07-20T07:20:12;5.47;;;3.50;;
21354;SDS011;10835;50.148;19.760;2023-07-20T07:22:47;4.55;;;2.83;;
21354;SDS011;10835;50.148;19.760;2023-07-20T07:25:19;4.47;;;2.70;;
21354;SDS011;10835;50.148;19.760;2023-07-20T07:27:49;5.47;;;3.10;;
21354;SDS011;10835;50.148;19.760;2023-07-20T07:30:19;4.50;;;2.40;;
21354;SDS011;10835;50.148;19.760;2023-07-20T07:32:47;3.80;;;2.70;;
21354;SDS011;10835;50.148;19.760;2023-07-20T07:35:16;3.67;;;2.60;;
21354;SDS011;10835;50.148;19.760;2023-07-20T07:37:47;4.60;;;2.38;;
21354;SDS011;10835;50.148;19.760;2023-07-20T07:40:20;6.25;;;2.35;;
21354;SDS011;10835;50.148;19.760;2023-07-20T07:42:48;3.65;;;2.38;;
21354;SDS011;10835;50.148;19.760;2023-07-20T07:45:16;3.40;;;2.33;;
21354;SDS011;10835;50.148;19.760;2023-07-20T07:47:45;3.70;;;2.35;;
21354;SDS011;10835;50.148;19.760;2023-07-20T07:50:13;3.75;;;2.42;;
21354;SDS011;10835;50.148;19.760;2023-07-20T07:52:41;5.50;;;2.40;;
21354;SDS011;10835;50.148;19.760;2023-07-20T07:55:13;4.90;;;2.67;;
21354;SDS011;10835;50.148;19.760;2023-07-20T07:57:46;7.60;;;2.65;;
21354;SDS011;10835;50.148;19.760;2023-07-20T08:00:15;6.05;;;2.53;;
21354;SDS011;10835;50.148;19.760;2023-07-20T08:02:45;3.03;;;2.45;;
21354;SDS011;10835;50.148;19.760;2023-07-20T08:05:15;4.80;;;2.10;;
21354;SDS011;10835;50.148;19.760;2023-07-20T08:07:43;1.92;;;1.70;;
21354;SDS011;10835;50.148;19.760;2023-07-20T08:10:12;4.10;;;1.92;;
21354;SDS011;10835;50.148;19.760;2023-07-20T08:12:40;2.67;;;2.20;;
21354;SDS011;10835;50.148;19.760;2023-07-20T08:15:11;3.13;;;2.10;;
21354;SDS011;10835;50.148;19.760;2023-07-20T08:17:41;2.72;;;2.20;;
21354;SDS011;10835;50.148;19.760;2023-07-20T08:20:12;6.70;;;2.20;;
21354;SDS011;10835;50.148;19.760;2023-07-20T08:22:40;4.70;;;2.03;;
21354;SDS011;10835;50.148;19.760;2023-07-20T08:25:14;2.83;;;2.17;;
21354;SDS011;10835;50.148;19.760;2023-07-20T08:27:46;3.03;;;1.88;;
21354;SDS011;10835;50.148;19.760;2023-07-20T08:30:15;3.75;;;1.98;;
21354;SDS011;10835;50.148;19.760;2023-07-20T08:32:45;4.65;;;2.47;;
21354;SDS011;10835;50.148;19.760;2023-07-20T08:35:13;5.13;;;2.25;;
21354;SDS011;10835;50.148;19.760;2023-07-20T08:37:42;3.85;;;2.38;;
21354;SDS011;10835;50.148;19.760;2023-07-20T08:40:11;2.28;;;2.03;;
21354;SDS011;10835;50.148;19.760;2023-07-20T08:42:41;4.32;;;2.53;;
21354;SDS011;10835;50.148;19.760;2023-07-20T08:45:13;3.15;;;2.00;;
21354;SDS011;10835;50.148;19.760;2023-07-20T08:47:47;3.35;;;2.00;;
21354;SDS011;10835;50.148;19.760;2023-07-20T08:50:16;3.88;;;2.22;;
21354;SDS011;10835;50.148;19.760;2023-07-20T08:52:45;3.15;;;2.40;;
21354;SDS011;10835;50.148;19.760;2023-07-20T08:55:14;3.83;;;1.92;;
21354;SDS011;10835;50.148;19.760;2023-07-20T08:57:42;3.20;;;1.90;;
21354;SDS011;10835;50.148;19.760;2023-07-20T09:00:13;3.78;;;2.08;;
21354;SDS011;10835;50.148;19.760;2023-07-20T09:02:45;2.72;;;1.77;;
21354;SDS011;10835;50.148;19.760;2023-07-20T09:05:14;2.42;;;1.80;;
21354;SDS011;10835;50.148;19.760;2023-07-20T09:07:43;1.95;;;1.70;;
21354;SDS011;10835;50.148;19.760;2023-07-20T09:10:12;2.60;;;1.52;;
21354;SDS011;10835;50.148;19.760;2023-07-20T09:12:41;1.83;;;1.40;;
21354;SDS011;10835;50.148;19.760;2023-07-20T09:15:11;4.45;;;1.48;;
21354;SDS011;10835;50.148;19.760;2023-07-20T09:17:41;2.95;;;1.55;;
21354;SDS011;10835;50.148;19.760;2023-07-20T09:20:14;3.85;;;1.80;;
21354;SDS011;10835;50.148;19.760;2023-07-20T09:22:48;2.03;;;1.45;;
21354;SDS011;10835;50.148;19.760;2023-07-20T09:25:19;2.92;;;1.92;;
21354;SDS011;10835;50.148;19.760;2023-07-20T09:27:50;7.45;;;1.52;;
21354;SDS011;10835;50.148;19.760;2023-07-20T09:30:20;4.35;;;1.67;;
21354;SDS011;10835;50.148;19.760;2023-07-20T09:32:57;3.30;;;1.60;;
21354;SDS011;10835;50.148;19.760;2023-07-20T09:35:26;2.22;;;1.80;;
21354;SDS011;10835;50.148;19.760;2023-07-20T09:38:08;2.83;;;1.48;;
21354;SDS011;10835;50.148;19.760;2023-07-20T09:40:40;2.75;;;1.88;;
21354;SDS011;10835;50.148;19.760;2023-07-20T09:43:11;4.35;;;1.77;;
21354;SDS011;10835;50.148;19.760;2023-07-20T09:45:44;4.40;;;1.92;;
21354;SDS011;10835;50.148;19.760;2023-07-20T09:48:16;3.63;;;1.40;;
21354;SDS011;10835;50.148;19.760;2023-07-20T09:50:51;1.80;;;1.60;;
21354;SDS011;10835;50.148;19.760;2023-07-20T09:53:20;1.73;;;1.50;;
21354;SDS011;10835;50.148;19.760;2023-07-20T09:55:48;1.65;;;1.40;;
21354;SDS011;10835;50.148;19.760;2023-07-20T09:58:21;2.97;;;1.70;;
21354;SDS011;10835;50.148;19.760;2023-07-20T10:00:50;1.58;;;1.40;;
21354;SDS011;10835;50.148;19.760;2023-07-20T10:03:22;3.13;;;1.55;;
21354;SDS011;10835;50.148;19.760;2023-07-20T10:06:02;3.95;;;1.80;;
21354;SDS011;10835;50.148;19.760;2023-07-20T10:08:47;1.85;;;1.52;;
21354;SDS011;10835;50.148;19.760;2023-07-20T10:11:20;3.10;;;1.70;;
21354;SDS011;10835;50.148;19.760;2023-07-20T10:13:53;3.67;;;1.73;;
21354;SDS011;10835;50.148;19.760;2023-07-20T10:16:26;1.88;;;1.73;;
21354;SDS011;10835;50.148;19.760;2023-07-20T10:19:02;2.03;;;1.83;;
21354;SDS011;10835;50.148;19.760;2023-07-20T10:21:45;7.43;;;2.15;;
21354;SDS011;10835;50.148;19.760;2023-07-20T10:24:22;2.40;;;1.90;;
21354;SDS011;10835;50.148;19.760;2023-07-20T10:26:52;2.17;;;1.98;;
21354;SDS011;10835;50.148;19.760;2023-07-20T10:29:21;2.22;;;1.88;;
21354;SDS011;10835;50.148;19.760;2023-07-20T10:31:50;4.95;;;2.60;;
21354;SDS011;10835;50.148;19.760;2023-07-20T10:34:25;2.22;;;1.98;;
21354;SDS011;10835;50.148;19.760;2023-07-20T10:36:53;2.67;;;2.20;;
21354;SDS011;10835;50.148;19.760;2023-07-20T10:39:22;3.63;;;2.47;;
21354;SDS011;10835;50.148;19.760;2023-07-20T10:42:01;5.63;;;2.60;;
21354;SDS011;10835;50.148;19.760;2023-07-20T10:44:30;4.28;;;2.33;;
21354;SDS011;10835;50.148;19.760;2023-07-20T10:46:58;3.42;;;2.75;;
21354;SDS011;10835;50.148;19.760;2023-07-20T10:49:32;3.78;;;2.78;;
21354;SDS011;10835;50.148;19.760;2023-07-20T10:52:03;4.43;;;3.00;;
21354;SDS011;10835;50.148;19.760;2023-07-20T10:54:33;12.73;;;3.38;;
21354;SDS011;10835;50.148;19.760;2023-07-20T11:00:08;5.65;;;3.35;;
21354;SDS011;10835;50.148;19.760;2023-07-20T11:02:42;5.43;;;3.72;;
21354;SDS011;10835;50.148;19.760;2023-07-20T11:08:10;5.10;;;3.88;;
21354;SDS011;10835;50.148;19.760;2023-07-20T11:10:40;4.05;;;3.47;;
21354;SDS011;10835;50.148;19.760;2023-07-20T11:13:17;6.50;;;3.33;;
21354;SDS011;10835;50.148;19.760;2023-07-20T11:15:47;5.68;;;3.42;;
21354;SDS011;10835;50.148;19.760;2023-07-20T11:18:29;6.28;;;3.80;;
21354;SDS011;10835;50.148;19.760;2023-07-20T11:21:00;3.90;;;3.00;;
21354;SDS011;10835;50.148;19.760;2023-07-20T11:23:29;3.40;;;3.03;;
21354;SDS011;10835;50.148;19.760;2023-07-20T11:25:59;5.93;;;3.60;;
21354;SDS011;10835;50.148;19.760;2023-07-20T11:28:29;6.10;;;3.25;;
21354;SDS011;10835;50.148;19.760;2023-07-20T11:30:58;4.25;;;2.88;;
21354;SDS011;10835;50.148;19.760;2023-07-20T11:33:26;5.30;;;2.88;;
21354;SDS011;10835;50.148;19.760;2023-07-20T11:35:54;6.53;;;3.95;;
21354;SDS011;10835;50.148;19.760;2023-07-20T11:38:24;5.78;;;3.50;;
21354;SDS011;10835;50.148;19.760;2023-07-20T11:40:53;7.32;;;3.53;;
21354;SDS011;10835;50.148;19.760;2023-07-20T11:43:21;5.68;;;4.50;;
21354;SDS011;10835;50.148;19.760;2023-07-20T11:45:52;5.53;;;3.90;;
21354;SDS011;10835;50.148;19.760;2023-07-20T11:48:21;5.80;;;3.60;;
21354;SDS011;10835;50.148;19.760;2023-07-20T11:50:52;4.57;;;3.40;;
21354;SDS011;10835;50.148;19.760;2023-07-20T11:53:20;4.00;;;2.90;;
21354;SDS011;10835;50.148;19.760;2023-07-20T11:55:50;4.47;;;2.72;;
21354;SDS011;10835;50.148;19.760;2023-07-20T11:58:19;4.65;;;2.88;;
21354;SDS011;10835;50.148;19.760;2023-07-20T12:00:48;3.33;;;2.83;;
21354;SDS011;10835;50.148;19.760;2023-07-20T12:03:17;3.25;;;2.38;;
21354;SDS011;10835;50.148;19.760;2023-07-20T12:05:46;4.10;;;2.65;;
21354;SDS011;10835;50.148;19.760;2023-07-20T12:08:21;4.72;;;2.47;;
21354;SDS011;10835;50.148;19.760;2023-07-20T12:10:51;4.05;;;2.17;;
21354;SDS011;10835;50.148;19.760;2023-07-20T12:13:19;2.10;;;1.90;;
21354;SDS011;10835;50.148;19.760;2023-07-20T12:15:48;2.38;;;1.90;;
21354;SDS011;10835;50.148;19.760;2023-07-20T12:18:22;4.93;;;2.63;;
21354;SDS011;10835;50.148;19.760;2023-07-20T12:20:58;6.05;;;2.30;;
21354;SDS011;10835;50.148;19.760;2023-07-20T12:23:34;4.80;;;2.45;;
21354;SDS011;10835;50.148;19.760;2023-07-20T12:26:05;3.00;;;1.90;;
21354;SDS011;10835;50.148;19.760;2023-07-20T12:28:35;2.33;;;1.80;;
21354;SDS011;10835;50.148;19.760;2023-07-20T12:31:07;2.03;;;1.83;;
21354;SDS011;10835;50.148;19.760;2023-07-20T12:33:36;4.57;;;2.50;;
21354;SDS011;10835;50.148;19.760;2023-07-20T12:36:05;3.00;;;2.30;;
21354;SDS011;10835;50.148;19.760;2023-07-20T12:38:33;8.13;;;1.92;;
21354;SDS011;10835;50.148;19.760;2023-07-20T12:41:01;1.92;;;1.73;;
21354;SDS011;10835;50.148;19.760;2023-07-20T12:43:32;2.45;;;2.00;;
21354;SDS011;10835;50.148;19.760;2023-07-20T12:46:00;1.88;;;1.67;;
21354;SDS011;10835;50.148;19.760;2023-07-20T12:48:29;3.63;;;1.92;;
21354;SDS011;10835;50.148;19.760;2023-07-20T12:50:59;2.35;;;2.03;;
21354;SDS011;10835;50.148;19.760;2023-07-20T12:53:27;4.78;;;2.13;;
21354;SDS011;10835;50.148;19.760;2023-07-20T12:55:56;2.47;;;1.95;;
21354;SDS011;10835;50.148;19.760;2023-07-20T12:58:24;2.72;;;2.03;;
21354;SDS011;10835;50.148;19.760;2023-07-20T13:00:56;2.05;;;1.83;;
21354;SDS011;10835;50.148;19.760;2023-07-20T13:03:27;2.03;;;1.80;;
21354;SDS011;10835;50.148;19.760;2023-07-20T13:05:57;1.85;;;1.58;;
21354;SDS011;10835;50.148;19.760;2023-07-20T13:08:32;2.53;;;1.60;;
21354;SDS011;10835;50.148;19.760;2023-07-20T13:11:01;2.30;;;2.10;;
21354;SDS011;10835;50.148;19.760;2023-07-20T13:13:29;2.22;;;2.03;;
21354;SDS011;10835;50.148;19.760;2023-07-20T13:15:59;4.15;;;2.28;;
21354;SDS011;10835;50.148;19.760;2023-07-20T13:18:27;3.22;;;2.35;;
21354;SDS011;10835;50.148;19.760;2023-07-20T13:20:57;2.78;;;1.92;;
21354;SDS011;10835;50.148;19.760;2023-07-20T13:23:28;3.20;;;2.25;;
21354;SDS011;10835;50.148;19.760;2023-07-20T13:25:57;2.97;;;2.00;;
21354;SDS011;10835;50.148;19.760;2023-07-20T13:28:28;3.15;;;2.10;;
21354;SDS011;10835;50.148;19.760;2023-07-20T13:30:56;2.25;;;2.00;;
21354;SDS011;10835;50.148;19.760;2023-07-20T13:33:26;3.08;;;1.85;;
21354;SDS011;10835;50.148;19.760;2023-07-20T13:35:55;3.40;;;1.90;;
21354;SDS011;10835;50.148;19.760;2023-07-20T13:38:23;2.45;;;1.80;;
21354;SDS011;10835;50.148;19.760;2023-07-20T13:40:51;2.55;;;2.00;;
21354;SDS011;10835;50.148;19.760;2023-07-20T13:43:20;2.22;;;1.90;;
21354;SDS011;10835;50.148;19.760;2023-07-20T13:45:48;1.90;;;1.52;;
21354;SDS011;10835;50.148;19.760;2023-07-20T13:48:17;3.15;;;1.88;;
21354;SDS011;10835;50.148;19.760;2023-07-20T13:50:51;1.95;;;1.73;;
21354;SDS011;10835;50.148;19.760;2023-07-20T13:53:26;4.07;;;1.65;;
21354;SDS011;10835;50.148;19.760;2023-07-20T13:55:58;3.30;;;1.67;;
21354;SDS011;10835;50.148;19.760;2023-07-20T13:58:29;2.22;;;1.50;;
21354;SDS011;10835;50.148;19.760;2023-07-20T14:00:58;1.92;;;1.60;;
21354;SDS011;10835;50.148;19.760;2023-07-20T14:03:26;5.10;;;2.35;;
21354;SDS011;10835;50.148;19.760;2023-07-20T14:05:56;2.17;;;1.73;;
21354;SDS011;10835;50.148;19.760;2023-07-20T14:08:28;1.50;;;1.23;;
21354;SDS011;10835;50.148;19.760;2023-07-20T14:10:57;0.80;;;0.80;;
21354;SDS011;10835;50.148;19.760;2023-07-20T14:13:28;1.00;;;1.00;;
21354;SDS011;10835;50.148;19.760;2023-07-20T14:16:12;1.30;;;1.00;;
21354;SDS011;10835;50.148;19.760;2023-07-20T14:18:40;1.95;;;0.80;;
21354;SDS011;10835;50.148;19.760;2023-07-20T14:21:10;2.13;;;1.10;;
21354;SDS011;10835;50.148;19.760;2023-07-20T14:23:38;1.45;;;0.80;;
21354;SDS011;10835;50.148;19.760;2023-07-20T14:26:07;0.90;;;0.75;;
21354;SDS011;10835;50.148;19.760;2023-07-20T14:28:36;3.83;;;0.90;;
21354;SDS011;10835;50.148;19.760;2023-07-20T14:31:05;0.75;;;0.75;;
21354;SDS011;10835;50.148;19.760;2023-07-20T14:33:33;2.92;;;1.20;;
21354;SDS011;10835;50.148;19.760;2023-07-20T14:36:02;2.65;;;1.40;;
21354;SDS011;10835;50.148;19.760;2023-07-20T14:38:33;1.70;;;1.60;;
21354;SDS011;10835;50.148;19.760;2023-07-20T14:41:01;2.28;;;1.50;;
21354;SDS011;10835;50.148;19.760;2023-07-20T14:43:33;4.03;;;1.45;;
21354;SDS011;10835;50.148;19.760;2023-07-20T14:46:01;4.82;;;1.40;;
21354;SDS011;10835;50.148;19.760;2023-07-20T14:48:30;2.03;;;1.38;;
21354;SDS011;10835;50.148;19.760;2023-07-20T14:50:58;1.40;;;1.23;;
21354;SDS011;10835;50.148;19.760;2023-07-20T14:53:30;1.30;;;1.15;;
21354;SDS011;10835;50.148;19.760;2023-07-20T14:56:02;1.60;;;1.50;;
21354;SDS011;10835;50.148;19.760;2023-07-20T14:58:31;4.53;;;1.60;;
21354;SDS011;10835;50.148;19.760;2023-07-20T15:01:01;1.17;;;1.13;;